<?xml version="1.0" encoding="UTF-8" standalone="no" ?>
<gpx xmlns="http://www.topografix.com/GPX/1/1" xmlns:xsi="http://www.w3.org/2001/XMLSchema-instance" xsi:schemaLocation="http://www.topografix.com/GPX/1/1 http://www.topografix.com/GPX/1/1/gpx.xsd" version="1.1" creator="VisuGPX - https://www.visugpx.com">
  <metadata>
    <name>pwkTwJsqcG</name>
    <desc><![CDATA[

]]></desc>
  </metadata>
  <trk>
    <name><![CDATA[pwkTwJsqcG_1]]></name>
    <extensions>
      <line xmlns="http://www.topografix.com/GPX/gpx_style/0/2">
        <color>000088</color>
        <width>4</width>
      </line>
    </extensions>
    <trkseg>
      <trkpt lat="43.16392" lon="6.02463">
        <ele>134.72</ele>
        <time>2022-09-17T08:13:21Z</time>
      </trkpt>
      <trkpt lat="43.16368" lon="6.02419">
        <ele>138.57</ele>
        <time>2022-09-17T08:13:36Z</time>
      </trkpt>
      <trkpt lat="43.16349" lon="6.02385">
        <ele>138.57</ele>
        <time>2022-09-17T08:13:46Z</time>
      </trkpt>
      <trkpt lat="43.16316" lon="6.0235">
        <ele>139.05</ele>
        <time>2022-09-17T08:13:59Z</time>
      </trkpt>
      <trkpt lat="43.16284" lon="6.02331">
        <ele>140.97</ele>
        <time>2022-09-17T08:14:12Z</time>
      </trkpt>
      <trkpt lat="43.16254" lon="6.02313">
        <ele>142.41</ele>
        <time>2022-09-17T08:14:21Z</time>
      </trkpt>
      <trkpt lat="43.16223" lon="6.02303">
        <ele>142.41</ele>
        <time>2022-09-17T08:14:29Z</time>
      </trkpt>
      <trkpt lat="43.16219" lon="6.02301">
        <ele>141.93</ele>
        <time>2022-09-17T08:14:30Z</time>
      </trkpt>
      <trkpt lat="43.16215" lon="6.02299">
        <ele>141.93</ele>
        <time>2022-09-17T08:14:31Z</time>
      </trkpt>
      <trkpt lat="43.16206" lon="6.02295">
        <ele>141.45</ele>
        <time>2022-09-17T08:14:33Z</time>
      </trkpt>
      <trkpt lat="43.16151" lon="6.02274">
        <ele>143.37</ele>
        <time>2022-09-17T08:14:48Z</time>
      </trkpt>
      <trkpt lat="43.16108" lon="6.02267">
        <ele>144.82</ele>
        <time>2022-09-17T08:14:59Z</time>
      </trkpt>
      <trkpt lat="43.16036" lon="6.0224">
        <ele>144.82</ele>
        <time>2022-09-17T08:15:18Z</time>
      </trkpt>
      <trkpt lat="43.15988" lon="6.02207">
        <ele>144.82</ele>
        <time>2022-09-17T08:15:32Z</time>
      </trkpt>
      <trkpt lat="43.15974" lon="6.02198">
        <ele>145.3</ele>
        <time>2022-09-17T08:15:36Z</time>
      </trkpt>
      <trkpt lat="43.15971" lon="6.02199">
        <ele>145.3</ele>
        <time>2022-09-17T08:15:37Z</time>
      </trkpt>
      <trkpt lat="43.15968" lon="6.02201">
        <ele>145.78</ele>
        <time>2022-09-17T08:15:38Z</time>
      </trkpt>
      <trkpt lat="43.15964" lon="6.02204">
        <ele>145.78</ele>
        <time>2022-09-17T08:15:39Z</time>
      </trkpt>
      <trkpt lat="43.1596" lon="6.02206">
        <ele>145.78</ele>
        <time>2022-09-17T08:15:40Z</time>
      </trkpt>
      <trkpt lat="43.15956" lon="6.02208">
        <ele>145.78</ele>
        <time>2022-09-17T08:15:41Z</time>
      </trkpt>
      <trkpt lat="43.15953" lon="6.0221">
        <ele>145.3</ele>
        <time>2022-09-17T08:15:42Z</time>
      </trkpt>
      <trkpt lat="43.15949" lon="6.02212">
        <ele>145.3</ele>
        <time>2022-09-17T08:15:43Z</time>
      </trkpt>
      <trkpt lat="43.15945" lon="6.02214">
        <ele>145.3</ele>
        <time>2022-09-17T08:15:44Z</time>
      </trkpt>
      <trkpt lat="43.15927" lon="6.02224">
        <ele>144.82</ele>
        <time>2022-09-17T08:15:49Z</time>
      </trkpt>
      <trkpt lat="43.15914" lon="6.02229">
        <ele>144.82</ele>
        <time>2022-09-17T08:15:52Z</time>
      </trkpt>
      <trkpt lat="43.15855" lon="6.02243">
        <ele>142.41</ele>
        <time>2022-09-17T08:16:05Z</time>
      </trkpt>
      <trkpt lat="43.15798" lon="6.02253">
        <ele>140.49</ele>
        <time>2022-09-17T08:16:17Z</time>
      </trkpt>
      <trkpt lat="43.1576" lon="6.02252">
        <ele>138.09</ele>
        <time>2022-09-17T08:16:23Z</time>
      </trkpt>
      <trkpt lat="43.15741" lon="6.02253">
        <ele>137.13</ele>
        <time>2022-09-17T08:16:27Z</time>
      </trkpt>
      <trkpt lat="43.15736" lon="6.02256">
        <ele>136.64</ele>
        <time>2022-09-17T08:16:28Z</time>
      </trkpt>
      <trkpt lat="43.15731" lon="6.02262">
        <ele>136.16</ele>
        <time>2022-09-17T08:16:29Z</time>
      </trkpt>
      <trkpt lat="43.15727" lon="6.0227">
        <ele>135.68</ele>
        <time>2022-09-17T08:16:30Z</time>
      </trkpt>
      <trkpt lat="43.15724" lon="6.02277">
        <ele>135.2</ele>
        <time>2022-09-17T08:16:31Z</time>
      </trkpt>
      <trkpt lat="43.15718" lon="6.02289">
        <ele>133.76</ele>
        <time>2022-09-17T08:16:33Z</time>
      </trkpt>
      <trkpt lat="43.15715" lon="6.02292">
        <ele>133.28</ele>
        <time>2022-09-17T08:16:34Z</time>
      </trkpt>
      <trkpt lat="43.15712" lon="6.02293">
        <ele>133.28</ele>
        <time>2022-09-17T08:16:35Z</time>
      </trkpt>
      <trkpt lat="43.1571" lon="6.02292">
        <ele>132.8</ele>
        <time>2022-09-17T08:16:36Z</time>
      </trkpt>
      <trkpt lat="43.15707" lon="6.02291">
        <ele>132.32</ele>
        <time>2022-09-17T08:16:37Z</time>
      </trkpt>
      <trkpt lat="43.15705" lon="6.02288">
        <ele>132.32</ele>
        <time>2022-09-17T08:16:38Z</time>
      </trkpt>
      <trkpt lat="43.15702" lon="6.02284">
        <ele>132.32</ele>
        <time>2022-09-17T08:16:39Z</time>
      </trkpt>
      <trkpt lat="43.15699" lon="6.02279">
        <ele>131.84</ele>
        <time>2022-09-17T08:16:40Z</time>
      </trkpt>
      <trkpt lat="43.15646" lon="6.0221">
        <ele>129.92</ele>
        <time>2022-09-17T08:16:53Z</time>
      </trkpt>
      <trkpt lat="43.15623" lon="6.02184">
        <ele>129.43</ele>
        <time>2022-09-17T08:16:58Z</time>
      </trkpt>
      <trkpt lat="43.15586" lon="6.02127">
        <ele>132.8</ele>
        <time>2022-09-17T08:17:09Z</time>
      </trkpt>
      <trkpt lat="43.15534" lon="6.02046">
        <ele>135.2</ele>
        <time>2022-09-17T08:17:24Z</time>
      </trkpt>
      <trkpt lat="43.1551" lon="6.0201">
        <ele>135.68</ele>
        <time>2022-09-17T08:17:31Z</time>
      </trkpt>
      <trkpt lat="43.15507" lon="6.02004">
        <ele>135.68</ele>
        <time>2022-09-17T08:17:32Z</time>
      </trkpt>
      <trkpt lat="43.15503" lon="6.01998">
        <ele>135.68</ele>
        <time>2022-09-17T08:17:33Z</time>
      </trkpt>
      <trkpt lat="43.15494" lon="6.01988">
        <ele>136.16</ele>
        <time>2022-09-17T08:17:35Z</time>
      </trkpt>
      <trkpt lat="43.15489" lon="6.01984">
        <ele>136.16</ele>
        <time>2022-09-17T08:17:36Z</time>
      </trkpt>
      <trkpt lat="43.15484" lon="6.01981">
        <ele>136.64</ele>
        <time>2022-09-17T08:17:37Z</time>
      </trkpt>
      <trkpt lat="43.15478" lon="6.01979">
        <ele>137.13</ele>
        <time>2022-09-17T08:17:38Z</time>
      </trkpt>
      <trkpt lat="43.15472" lon="6.01978">
        <ele>137.61</ele>
        <time>2022-09-17T08:17:39Z</time>
      </trkpt>
      <trkpt lat="43.15441" lon="6.01971">
        <ele>140.01</ele>
        <time>2022-09-17T08:17:45Z</time>
      </trkpt>
      <trkpt lat="43.15435" lon="6.0197">
        <ele>140.01</ele>
        <time>2022-09-17T08:17:46Z</time>
      </trkpt>
      <trkpt lat="43.15407" lon="6.01966">
        <ele>140.01</ele>
        <time>2022-09-17T08:17:51Z</time>
      </trkpt>
      <trkpt lat="43.15402" lon="6.01964">
        <ele>140.01</ele>
        <time>2022-09-17T08:17:52Z</time>
      </trkpt>
      <trkpt lat="43.15379" lon="6.01956">
        <ele>139.05</ele>
        <time>2022-09-17T08:17:56Z</time>
      </trkpt>
      <trkpt lat="43.15374" lon="6.01953">
        <ele>139.05</ele>
        <time>2022-09-17T08:17:57Z</time>
      </trkpt>
      <trkpt lat="43.15369" lon="6.01949">
        <ele>139.05</ele>
        <time>2022-09-17T08:17:58Z</time>
      </trkpt>
      <trkpt lat="43.15364" lon="6.01945">
        <ele>139.53</ele>
        <time>2022-09-17T08:17:59Z</time>
      </trkpt>
      <trkpt lat="43.1536" lon="6.01941">
        <ele>139.53</ele>
        <time>2022-09-17T08:18:00Z</time>
      </trkpt>
      <trkpt lat="43.15355" lon="6.01936">
        <ele>139.05</ele>
        <time>2022-09-17T08:18:01Z</time>
      </trkpt>
      <trkpt lat="43.15347" lon="6.01927">
        <ele>139.05</ele>
        <time>2022-09-17T08:18:03Z</time>
      </trkpt>
      <trkpt lat="43.15343" lon="6.01922">
        <ele>138.57</ele>
        <time>2022-09-17T08:18:04Z</time>
      </trkpt>
      <trkpt lat="43.15335" lon="6.01913">
        <ele>139.05</ele>
        <time>2022-09-17T08:18:06Z</time>
      </trkpt>
      <trkpt lat="43.15331" lon="6.01907">
        <ele>139.05</ele>
        <time>2022-09-17T08:18:07Z</time>
      </trkpt>
      <trkpt lat="43.15326" lon="6.01895">
        <ele>139.53</ele>
        <time>2022-09-17T08:18:09Z</time>
      </trkpt>
      <trkpt lat="43.15323" lon="6.01889">
        <ele>139.53</ele>
        <time>2022-09-17T08:18:10Z</time>
      </trkpt>
      <trkpt lat="43.15309" lon="6.01866">
        <ele>138.57</ele>
        <time>2022-09-17T08:18:14Z</time>
      </trkpt>
      <trkpt lat="43.15239" lon="6.01792">
        <ele>132.32</ele>
        <time>2022-09-17T08:18:25Z</time>
      </trkpt>
      <trkpt lat="43.15157" lon="6.01708">
        <ele>127.03</ele>
        <time>2022-09-17T08:18:35Z</time>
      </trkpt>
      <trkpt lat="43.15147" lon="6.01701">
        <ele>125.59</ele>
        <time>2022-09-17T08:18:36Z</time>
      </trkpt>
      <trkpt lat="43.15137" lon="6.01695">
        <ele>123.67</ele>
        <time>2022-09-17T08:18:37Z</time>
      </trkpt>
      <trkpt lat="43.15115" lon="6.01684">
        <ele>122.22</ele>
        <time>2022-09-17T08:18:39Z</time>
      </trkpt>
      <trkpt lat="43.15003" lon="6.01594">
        <ele>112.61</ele>
        <time>2022-09-17T08:18:49Z</time>
      </trkpt>
      <trkpt lat="43.14892" lon="6.01455">
        <ele>101.08</ele>
        <time>2022-09-17T08:19:01Z</time>
      </trkpt>
      <trkpt lat="43.14826" lon="6.01329">
        <ele>90.5</ele>
        <time>2022-09-17T08:19:11Z</time>
      </trkpt>
      <trkpt lat="43.14803" lon="6.0129">
        <ele>86.66</ele>
        <time>2022-09-17T08:19:14Z</time>
      </trkpt>
      <trkpt lat="43.14795" lon="6.01277">
        <ele>85.21</ele>
        <time>2022-09-17T08:19:15Z</time>
      </trkpt>
      <trkpt lat="43.14788" lon="6.01262">
        <ele>85.21</ele>
        <time>2022-09-17T08:19:16Z</time>
      </trkpt>
      <trkpt lat="43.14782" lon="6.01248">
        <ele>83.77</ele>
        <time>2022-09-17T08:19:17Z</time>
      </trkpt>
      <trkpt lat="43.14777" lon="6.01232">
        <ele>82.81</ele>
        <time>2022-09-17T08:19:18Z</time>
      </trkpt>
      <trkpt lat="43.14764" lon="6.01204">
        <ele>80.41</ele>
        <time>2022-09-17T08:19:20Z</time>
      </trkpt>
      <trkpt lat="43.14757" lon="6.01193">
        <ele>79.93</ele>
        <time>2022-09-17T08:19:21Z</time>
      </trkpt>
      <trkpt lat="43.14749" lon="6.01183">
        <ele>79.93</ele>
        <time>2022-09-17T08:19:22Z</time>
      </trkpt>
      <trkpt lat="43.14706" lon="6.01138">
        <ele>80.89</ele>
        <time>2022-09-17T08:19:28Z</time>
      </trkpt>
      <trkpt lat="43.14701" lon="6.0113">
        <ele>81.37</ele>
        <time>2022-09-17T08:19:29Z</time>
      </trkpt>
      <trkpt lat="43.14654" lon="6.01037">
        <ele>82.81</ele>
        <time>2022-09-17T08:19:42Z</time>
      </trkpt>
      <trkpt lat="43.14646" lon="6.01015">
        <ele>82.81</ele>
        <time>2022-09-17T08:19:46Z</time>
      </trkpt>
      <trkpt lat="43.14643" lon="6.0101">
        <ele>82.33</ele>
        <time>2022-09-17T08:19:47Z</time>
      </trkpt>
      <trkpt lat="43.1464" lon="6.01005">
        <ele>82.33</ele>
        <time>2022-09-17T08:19:48Z</time>
      </trkpt>
      <trkpt lat="43.14636" lon="6.01001">
        <ele>82.33</ele>
        <time>2022-09-17T08:19:49Z</time>
      </trkpt>
      <trkpt lat="43.14633" lon="6.00997">
        <ele>81.85</ele>
        <time>2022-09-17T08:19:50Z</time>
      </trkpt>
      <trkpt lat="43.14629" lon="6.00994">
        <ele>81.37</ele>
        <time>2022-09-17T08:19:51Z</time>
      </trkpt>
      <trkpt lat="43.14625" lon="6.00991">
        <ele>81.37</ele>
        <time>2022-09-17T08:19:52Z</time>
      </trkpt>
      <trkpt lat="43.1462" lon="6.00988">
        <ele>80.41</ele>
        <time>2022-09-17T08:19:53Z</time>
      </trkpt>
      <trkpt lat="43.14548" lon="6.00952">
        <ele>72.24</ele>
        <time>2022-09-17T08:20:04Z</time>
      </trkpt>
      <trkpt lat="43.14493" lon="6.00935">
        <ele>69.35</ele>
        <time>2022-09-17T08:20:11Z</time>
      </trkpt>
      <trkpt lat="43.14485" lon="6.0093">
        <ele>69.35</ele>
        <time>2022-09-17T08:20:12Z</time>
      </trkpt>
      <trkpt lat="43.14471" lon="6.0092">
        <ele>68.87</ele>
        <time>2022-09-17T08:20:14Z</time>
      </trkpt>
      <trkpt lat="43.14385" lon="6.00837">
        <ele>67.43</ele>
        <time>2022-09-17T08:20:28Z</time>
      </trkpt>
      <trkpt lat="43.14285" lon="6.00762">
        <ele>62.14</ele>
        <time>2022-09-17T08:20:43Z</time>
      </trkpt>
      <trkpt lat="43.14275" lon="6.00754">
        <ele>61.66</ele>
        <time>2022-09-17T08:20:45Z</time>
      </trkpt>
      <trkpt lat="43.1427" lon="6.00749">
        <ele>61.66</ele>
        <time>2022-09-17T08:20:46Z</time>
      </trkpt>
      <trkpt lat="43.14267" lon="6.00743">
        <ele>63.1</ele>
        <time>2022-09-17T08:20:47Z</time>
      </trkpt>
      <trkpt lat="43.14266" lon="6.00735">
        <ele>62.62</ele>
        <time>2022-09-17T08:20:48Z</time>
      </trkpt>
      <trkpt lat="43.14264" lon="6.00727">
        <ele>62.62</ele>
        <time>2022-09-17T08:20:49Z</time>
      </trkpt>
      <trkpt lat="43.14262" lon="6.0072">
        <ele>62.14</ele>
        <time>2022-09-17T08:20:50Z</time>
      </trkpt>
      <trkpt lat="43.14257" lon="6.00699">
        <ele>61.66</ele>
        <time>2022-09-17T08:20:53Z</time>
      </trkpt>
      <trkpt lat="43.14255" lon="6.00692">
        <ele>61.18</ele>
        <time>2022-09-17T08:20:54Z</time>
      </trkpt>
      <trkpt lat="43.14226" lon="6.00591">
        <ele>60.22</ele>
        <time>2022-09-17T08:21:09Z</time>
      </trkpt>
      <trkpt lat="43.1419" lon="6.0046">
        <ele>60.7</ele>
        <time>2022-09-17T08:21:25Z</time>
      </trkpt>
      <trkpt lat="43.14151" lon="6.00324">
        <ele>57.82</ele>
        <time>2022-09-17T08:21:42Z</time>
      </trkpt>
      <trkpt lat="43.14144" lon="6.00278">
        <ele>57.34</ele>
        <time>2022-09-17T08:21:47Z</time>
      </trkpt>
      <trkpt lat="43.14145" lon="6.0027">
        <ele>57.34</ele>
        <time>2022-09-17T08:21:48Z</time>
      </trkpt>
      <trkpt lat="43.14146" lon="6.00261">
        <ele>56.86</ele>
        <time>2022-09-17T08:21:49Z</time>
      </trkpt>
      <trkpt lat="43.14149" lon="6.00253">
        <ele>57.34</ele>
        <time>2022-09-17T08:21:50Z</time>
      </trkpt>
      <trkpt lat="43.14152" lon="6.00245">
        <ele>57.34</ele>
        <time>2022-09-17T08:21:51Z</time>
      </trkpt>
      <trkpt lat="43.14156" lon="6.00239">
        <ele>57.34</ele>
        <time>2022-09-17T08:21:52Z</time>
      </trkpt>
      <trkpt lat="43.1416" lon="6.00233">
        <ele>57.82</ele>
        <time>2022-09-17T08:21:53Z</time>
      </trkpt>
      <trkpt lat="43.14165" lon="6.00228">
        <ele>57.82</ele>
        <time>2022-09-17T08:21:54Z</time>
      </trkpt>
      <trkpt lat="43.14175" lon="6.00213">
        <ele>58.78</ele>
        <time>2022-09-17T08:21:57Z</time>
      </trkpt>
      <trkpt lat="43.14178" lon="6.00208">
        <ele>58.78</ele>
        <time>2022-09-17T08:21:58Z</time>
      </trkpt>
      <trkpt lat="43.1418" lon="6.00202">
        <ele>59.26</ele>
        <time>2022-09-17T08:21:59Z</time>
      </trkpt>
      <trkpt lat="43.14181" lon="6.00196">
        <ele>59.74</ele>
        <time>2022-09-17T08:22:00Z</time>
      </trkpt>
      <trkpt lat="43.14182" lon="6.0019">
        <ele>59.74</ele>
        <time>2022-09-17T08:22:01Z</time>
      </trkpt>
      <trkpt lat="43.14187" lon="6.00165">
        <ele>60.22</ele>
        <time>2022-09-17T08:22:05Z</time>
      </trkpt>
      <trkpt lat="43.14189" lon="6.00159">
        <ele>60.22</ele>
        <time>2022-09-17T08:22:06Z</time>
      </trkpt>
      <trkpt lat="43.14191" lon="6.00153">
        <ele>60.22</ele>
        <time>2022-09-17T08:22:07Z</time>
      </trkpt>
      <trkpt lat="43.14234" lon="6.00058">
        <ele>58.3</ele>
        <time>2022-09-17T08:22:25Z</time>
      </trkpt>
      <trkpt lat="43.14236" lon="6.00052">
        <ele>57.82</ele>
        <time>2022-09-17T08:22:26Z</time>
      </trkpt>
      <trkpt lat="43.14236" lon="6.00045">
        <ele>57.82</ele>
        <time>2022-09-17T08:22:27Z</time>
      </trkpt>
      <trkpt lat="43.14236" lon="6.00037">
        <ele>57.82</ele>
        <time>2022-09-17T08:22:28Z</time>
      </trkpt>
      <trkpt lat="43.14236" lon="6.0003">
        <ele>58.78</ele>
        <time>2022-09-17T08:22:29Z</time>
      </trkpt>
      <trkpt lat="43.14236" lon="6.00022">
        <ele>59.26</ele>
        <time>2022-09-17T08:22:30Z</time>
      </trkpt>
      <trkpt lat="43.14237" lon="6.00015">
        <ele>59.74</ele>
        <time>2022-09-17T08:22:31Z</time>
      </trkpt>
      <trkpt lat="43.14238" lon="6.00008">
        <ele>59.26</ele>
        <time>2022-09-17T08:22:32Z</time>
      </trkpt>
      <trkpt lat="43.14236" lon="5.9997">
        <ele>59.26</ele>
        <time>2022-09-17T08:22:40Z</time>
      </trkpt>
      <trkpt lat="43.14234" lon="5.99964">
        <ele>59.26</ele>
        <time>2022-09-17T08:22:41Z</time>
      </trkpt>
      <trkpt lat="43.14234" lon="5.99958">
        <ele>59.26</ele>
        <time>2022-09-17T08:22:42Z</time>
      </trkpt>
      <trkpt lat="43.14235" lon="5.99952">
        <ele>59.74</ele>
        <time>2022-09-17T08:22:43Z</time>
      </trkpt>
      <trkpt lat="43.14236" lon="5.99946">
        <ele>59.26</ele>
        <time>2022-09-17T08:22:44Z</time>
      </trkpt>
      <trkpt lat="43.14248" lon="5.99818">
        <ele>60.7</ele>
        <time>2022-09-17T08:23:04Z</time>
      </trkpt>
      <trkpt lat="43.14253" lon="5.99704">
        <ele>61.66</ele>
        <time>2022-09-17T08:23:22Z</time>
      </trkpt>
      <trkpt lat="43.14263" lon="5.99582">
        <ele>65.03</ele>
        <time>2022-09-17T08:23:45Z</time>
      </trkpt>
      <trkpt lat="43.14265" lon="5.9953">
        <ele>65.99</ele>
        <time>2022-09-17T08:23:58Z</time>
      </trkpt>
      <trkpt lat="43.14265" lon="5.99527">
        <ele>65.99</ele>
        <time>2022-09-17T08:23:59Z</time>
      </trkpt>
      <trkpt lat="43.14266" lon="5.99525">
        <ele>65.99</ele>
        <time>2022-09-17T08:24:00Z</time>
      </trkpt>
      <trkpt lat="43.14266" lon="5.99521">
        <ele>66.47</ele>
        <time>2022-09-17T08:24:01Z</time>
      </trkpt>
      <trkpt lat="43.14266" lon="5.99516">
        <ele>66.95</ele>
        <time>2022-09-17T08:24:02Z</time>
      </trkpt>
      <trkpt lat="43.14278" lon="5.99445">
        <ele>67.43</ele>
        <time>2022-09-17T08:24:15Z</time>
      </trkpt>
      <trkpt lat="43.14293" lon="5.99307">
        <ele>68.87</ele>
        <time>2022-09-17T08:24:37Z</time>
      </trkpt>
      <trkpt lat="43.14309" lon="5.99168">
        <ele>69.83</ele>
        <time>2022-09-17T08:24:58Z</time>
      </trkpt>
      <trkpt lat="43.14316" lon="5.99063">
        <ele>72.72</ele>
        <time>2022-09-17T08:25:14Z</time>
      </trkpt>
      <trkpt lat="43.14305" lon="5.98957">
        <ele>74.16</ele>
        <time>2022-09-17T08:25:30Z</time>
      </trkpt>
      <trkpt lat="43.14306" lon="5.98837">
        <ele>74.64</ele>
        <time>2022-09-17T08:25:48Z</time>
      </trkpt>
      <trkpt lat="43.14309" lon="5.98811">
        <ele>75.6</ele>
        <time>2022-09-17T08:25:52Z</time>
      </trkpt>
      <trkpt lat="43.1431" lon="5.98804">
        <ele>75.6</ele>
        <time>2022-09-17T08:25:53Z</time>
      </trkpt>
      <trkpt lat="43.14319" lon="5.987">
        <ele>76.08</ele>
        <time>2022-09-17T08:26:09Z</time>
      </trkpt>
      <trkpt lat="43.14344" lon="5.98573">
        <ele>78</ele>
        <time>2022-09-17T08:26:30Z</time>
      </trkpt>
      <trkpt lat="43.14369" lon="5.98511">
        <ele>80.41</ele>
        <time>2022-09-17T08:26:44Z</time>
      </trkpt>
      <trkpt lat="43.14374" lon="5.98506">
        <ele>80.41</ele>
        <time>2022-09-17T08:26:46Z</time>
      </trkpt>
      <trkpt lat="43.14408" lon="5.98491">
        <ele>83.29</ele>
        <time>2022-09-17T08:26:58Z</time>
      </trkpt>
      <trkpt lat="43.1441" lon="5.98489">
        <ele>83.29</ele>
        <time>2022-09-17T08:26:59Z</time>
      </trkpt>
      <trkpt lat="43.14412" lon="5.98488">
        <ele>83.77</ele>
        <time>2022-09-17T08:27:00Z</time>
      </trkpt>
      <trkpt lat="43.14451" lon="5.98478">
        <ele>87.14</ele>
        <time>2022-09-17T08:27:13Z</time>
      </trkpt>
      <trkpt lat="43.14453" lon="5.98476">
        <ele>87.62</ele>
        <time>2022-09-17T08:27:14Z</time>
      </trkpt>
      <trkpt lat="43.1449" lon="5.98456">
        <ele>90.98</ele>
        <time>2022-09-17T08:27:26Z</time>
      </trkpt>
      <trkpt lat="43.14526" lon="5.98445">
        <ele>92.42</ele>
        <time>2022-09-17T08:27:37Z</time>
      </trkpt>
      <trkpt lat="43.14559" lon="5.98454">
        <ele>91.94</ele>
        <time>2022-09-17T08:27:48Z</time>
      </trkpt>
      <trkpt lat="43.14561" lon="5.98456">
        <ele>91.94</ele>
        <time>2022-09-17T08:27:49Z</time>
      </trkpt>
      <trkpt lat="43.14562" lon="5.9846">
        <ele>91.46</ele>
        <time>2022-09-17T08:27:50Z</time>
      </trkpt>
    </trkseg>
  </trk>
</gpx>